Kahuku, Hawaii
Current Conditions -  °F | °C
As of 6:58 AM on Friday 19 Dec 2014 (Local Time) from PHHI Reporting Station
Scattered Clouds Scattered Clouds  
Wind Chill: 67°   Ceiling: Unl
Heat Index: 67°   Visibility: 10mi
Dew Point: 62°   Wind: 1mph
Humidity: 82%   Direction: 290°WNW
Pressure: 30.11"   Gusts: NA
Location:  21.67°N, 157.94°W
Report Text: PHHI 191658Z AUTO 29001KT 10SM SCT032 20/16 A3011 RMK AO2 SLP190 T01950164 $
Loading
Personal Weather Stations






























Interactive Weather Map New forecast layout! Learn more

10-Day Weather Forecast

Advertisements
Track Severe Weather on mobile